Tuesday, July 17, 2018, 1:31 AM EDT
Back to Local

KBGM, Binghamton Regional Airport

Location: Johnson City, NY, United States Lat: 42.2
Local Time: 1:31 AM EDT ( 5:31 GMT) Lon: -75.983
Time Zone: US/Eastern Elev: 1637 ft

Show me the last for .
Show Decoded

2018-07-17 00:53 METAR KBGM 170453Z AUTO 09004KT 8SM FEW014 FEW095 SCT120 21/20 A2993 RMK AO2 LTG
                 DSNT NE RAE47 TSE20 SLP122 P0008 T02060200 403060194 =
2018-07-17 00:35 METAR KBGM 170435Z AUTO 07003KT 6SM RA BR BKN100 BKN120 21/19 A2993 RMK AO2 LTG
                 DSNT N AND NE TSE20 P0007 T02060194 =
2018-07-17 00:26 METAR KBGM 170426Z AUTO 00000KT 5SM VCTS -RA BR FEW050 SCT075 BKN100 21/20 A2994
                 RMK AO2 LTG DSNT N AND NE TSE20 P0006 T02110200 =
2018-07-17 00:03 METAR KBGM 170403Z AUTO 21003KT 10SM -TSRA FEW008 BKN060 OVC070 21/20 A2997 RMK
                 AO2 LTG DSNT ALQDS P0001 T02060200 =
2018-07-16 23:55 METAR KBGM 170355Z AUTO VRB03KT 2SM -TSRA BR FEW007 BKN033 OVC080 21/20 A2996
                 RMK AO2 LTG DSNT ALQDS P0000 T02060200 =
2018-07-16 23:53 METAR KBGM 170353Z AUTO 33005G17KT 1 1/4SM TSRA BR FEW007 BKN028 OVC060 21/20
                 A2997 RMK AO2 LTG DSNT ALQDS RAB09E19B43 TSB39 SLP134 P0027 T02060200 =
2018-07-16 23:51 METAR KBGM 170351Z AUTO 30006G17KT 1SM +TSRA BR FEW007 BKN028 OVC041 21/20 A2997
                 RMK AO2 LTG DSNT ALQDS RAB09E19B43 TSB39 P0026 =
2018-07-16 23:44 METAR KBGM 170344Z AUTO 28010G16KT 2SM +TSRA BR FEW004 BKN028 OVC039 21/19 A2999
                 RMK AO2 LTG DSNT ALQDS RAB09E19B43 TSB39 PRESRR P0003 T02060194 =
2018-07-16 23:41 METAR KBGM 170341Z AUTO 28011KT 9SM TS SCT027 BKN032 OVC039 21/19 A2998 RMK AO2
                 LTG DSNT ALQDS RAB09E19 TSB39 PRESRR P0001 T02060194 =
2018-07-16 23:25 METAR KBGM 170325Z AUTO 06006KT 10SM VCTS BKN029 OVC036 21/19 A2996 RMK AO2 LTG
                 DSNT ALQDS RAB09E19 P0001 T02060194 =
2018-07-16 22:53 METAR KBGM 170253Z 03009KT 10SM VCTS SCT042 BKN049 OVC075 22/19 A2995 RMK AO2
                 LTG DSNT NW-NE SLP131 T02170189 53012 =
2018-07-16 21:53 METAR KBGM 170153Z 21005KT 10SM SCT110 26/21 A2993 RMK AO2 LTG DSNT NW-NE SLP121
                 T02610206 =
2018-07-16 20:53 METAR KBGM 170053Z 20005KT 10SM CLR 27/21 A2992 RMK AO2 LTG DSNT W-N SLP118
                 T02670206 =
2018-07-16 19:53 METAR KBGM 162353Z 20005KT 10SM CLR 27/21 A2992 RMK AO2 LTG DSNT N AND NW SLP118
                 T02670206 10306 20267 55006 =
2018-07-16 18:53 METAR KBGM 162253Z 19004KT 10SM CLR 28/20 A2991 RMK AO2 SLP118 T02780200 =
2018-07-16 17:53 METAR KBGM 162153Z 21006KT 10SM CLR 29/19 A2992 RMK AO2 SLP119 T02890194 =
2018-07-16 15:53 METAR KBGM 161953Z 25008KT 10SM CLR 30/19 A2996 RMK AO2 SLP130 T03000189 =
2018-07-16 14:53 METAR KBGM 161853Z 24006KT 10SM CLR 30/19 A2997 RMK AO2 SLP134 T03000194 =
2018-07-16 13:53 METAR KBGM 161753Z 24007KT 10SM FEW046 SCT055 29/19 A2999 RMK AO2 SLP143
                 T02890194 10294 20206 58010 =
2018-07-16 12:53 METAR KBGM 161653Z VRB06KT 10SM FEW037 29/19 A3001 RMK AO2 SLP147 T02890194 =
2018-07-16 11:53 METAR KBGM 161553Z VRB05KT 10SM CLR 28/20 A3002 RMK AO2 SLP153 T02780200 =
2018-07-16 10:53 METAR KBGM 161453Z VRB06KT 10SM CLR 26/21 A3003 RMK AO2 SLP154 T02610211 58003 =
2018-07-16 09:53 METAR KBGM 161353Z VRB04KT 10SM CLR 25/21 A3004 RMK AO2 SLP158 T02500206 =
2018-07-16 08:53 METAR KBGM 161253Z 24006KT 10SM CLR 24/21 A3004 RMK AO2 SLP159 T02390211 =
2018-07-16 08:08 METAR KBGM 161208Z 00000KT 5SM BR SCT002 21/21 A3004 RMK AO2 T02110206 =
2018-07-16 07:59 METAR KBGM 161159Z 14003KT 3SM BR BKN002 21/21 A3004 RMK AO2 T02060206 =
2018-07-16 07:53 METAR KBGM 161153Z 00000KT 1 1/4SM BR BKN002 21/20 A3004 RMK AO2 SLP159
                 T02060200 10217 20194 50002 =
2018-07-16 07:49 METAR KBGM 161149Z 00000KT 3/4SM BR VV002 21/20 A3004 RMK AO2 =
2018-07-16 07:38 METAR KBGM 161138Z 15003KT 1/4SM FG VV002 20/20 A3004 RMK AO2 T02000200 =
2018-07-16 07:29 METAR KBGM 161129Z 14003KT 1 1/2SM BR BKN003 20/20 A3004 RMK AO2 T02000200 =
2018-07-16 07:18 METAR KBGM 161118Z 00000KT 2 1/2SM BR SCT001 20/20 A3004 RMK AO2 T02000200 =
2018-07-16 06:53 METAR KBGM 161053Z 00000KT 3SM BR CLR 20/20 A3003 RMK AO2 SLP158 T02000200 =
2018-07-16 05:53 METAR KBGM 160953Z 00000KT 4SM BR CLR 19/19 A3003 RMK AO2 SLP157 T01940194 =
2018-07-16 05:30 METAR KBGM 160930Z AUTO 19003KT 4SM BR FEW002 19/19 A3003 RMK AO2 T01940194 =
2018-07-16 05:23 METAR KBGM 160923Z AUTO 00000KT 2 1/2SM BR FEW002 20/19 A3003 RMK AO2 T02000194
                 =
2018-07-16 05:21 METAR KBGM 160921Z AUTO 00000KT 1SM BR VV002 20/19 A3003 RMK AO2 T02000194 =
2018-07-16 05:13 METAR KBGM 160913Z AUTO 00000KT 1/4SM FG VV002 19/19 A3003 RMK AO2 T01940194 =
2018-07-16 05:09 METAR KBGM 160909Z AUTO 00000KT 3/4SM BR VV001 19/19 A3003 RMK AO2 T01940194 =
2018-07-16 04:53 METAR KBGM 160853Z AUTO 00000KT 1/4SM FG VV001 19/19 A3003 RMK AO2 SLP156
                 T01940194 55002 =
2018-07-16 04:12 METAR KBGM 160812Z AUTO 17003KT 1/4SM FG VV001 19/19 A3002 RMK AO2 T01940194 =
2018-07-16 04:04 METAR KBGM 160804Z AUTO 14003KT 1/2SM FG VV002 20/20 A3001 RMK AO2 T02000200 =
2018-07-16 03:57 METAR KBGM 160757Z AUTO 00000KT 1SM BR VV003 20/19 A3002 RMK AO2 T02000194 =
2018-07-16 03:55 METAR KBGM 160755Z AUTO 00000KT 1 1/2SM BR CLR 20/19 A3002 RMK AO2 T02000194 =
2018-07-16 03:53 METAR KBGM 160753Z AUTO 00000KT 3SM BR CLR 20/19 A3002 RMK AO2 SLP152 T02000194
                 =
2018-07-16 02:53 METAR KBGM 160653Z AUTO 00000KT 8SM CLR 21/19 A3003 RMK AO2 SLP155 T02060194 =
2018-07-16 01:53 METAR KBGM 160553Z AUTO 00000KT 10SM CLR 21/19 A3003 RMK AO2 SLP158 T02060194
                 10267 20206 50001 =

Support USWX by starting your Amazon purchase here.